Time;durP1;ratioP1;P1;durP2;ratioP2;P2;SDS_P1;SDS_P2;PMS_P1;PMS_P2;Temp;Humidity;BMP_temperature;BMP_pressure;BME280_temperature;BME280_humidity;BME280_pressure;Samples;Min_cycle;Max_cycle;Signal;HPM_P1;HPM_P2
2023/04/10 00:01:20;;;;;;;6.80;3.67;;;9.70;77.00;;;;;;4753703;30;20050;-90
2023/04/10 00:03:53;;;;;;;5.78;3.08;;;9.70;77.10;;;;;;4775666;30;20429;-90
2023/04/10 00:06:21;;;;;;;5.68;3.30;;;9.70;77.30;;;;;;4741470;30;20048;-90
2023/04/10 00:08:58;;;;;;;5.53;2.95;;;9.70;77.40;;;;;;4756201;30;20050;-90
2023/04/10 00:11:33;;;;;;;6.38;3.50;;;9.60;77.40;;;;;;4766112;30;20094;-90
2023/04/10 00:14:22;;;;;;;5.25;2.67;;;9.60;77.50;;;;;;4741829;30;20052;-89
2023/04/10 00:16:52;;;;;;;5.05;2.72;;;9.60;77.60;;;;;;4751486;30;20049;-90
2023/04/10 00:19:23;;;;;;;;;;;9.60;77.70;;;;;;4736322;30;20051;-90
2023/04/10 00:21:51;;;;;;;4.72;2.47;;;9.50;77.80;;;;;;4756251;30;19961;-90
2023/04/10 00:24:20;;;;;;;5.57;3.10;;;9.50;77.90;;;;;;4753881;30;20056;-90
2023/04/10 00:26:48;;;;;;;4.82;2.85;;;9.40;77.90;;;;;;4773185;30;20488;-90
2023/04/10 00:29:23;;;;;;;4.68;2.67;;;9.40;77.90;;;;;;4742009;30;20606;-90
2023/04/10 00:31:51;;;;;;;5.18;2.83;;;9.40;78.00;;;;;;4744757;30;20076;-90
2023/04/10 00:34:19;;;;;;;5.13;2.28;;;9.40;78.10;;;;;;4769794;30;20051;-90
2023/04/10 00:37:03;;;;;;;5.80;2.65;;;9.40;78.20;;;;;;4757595;30;20055;-90
2023/04/10 00:39:31;;;;;;;4.53;2.45;;;9.40;78.20;;;;;;4739977;30;20502;-90
2023/04/10 00:42:08;;;;;;;5.22;3.05;;;9.30;78.30;;;;;;4748219;30;20087;-89
2023/04/10 00:44:36;;;;;;;4.65;2.75;;;9.30;78.40;;;;;;4765220;30;20435;-90
2023/04/10 00:47:27;;;;;;;5.68;2.75;;;9.30;78.60;;;;;;4755799;30;20139;-90
2023/04/10 00:49:58;;;;;;;4.45;2.60;;;9.30;78.50;;;;;;4756162;30;20047;-90
2023/04/10 00:52:26;;;;;;;5.32;2.10;;;9.30;78.70;;;;;;4755618;30;20567;-90
2023/04/10 00:54:55;;;;;;;5.25;3.13;;;9.30;78.60;;;;;;4755712;30;20129;-90
2023/04/10 00:57:28;;;;;;;5.25;2.38;;;9.20;78.60;;;;;;4744778;30;20134;-90
2023/04/10 00:59:55;;;;;;;5.70;2.75;;;9.20;78.70;;;;;;4755144;30;20051;-91
2023/04/10 01:02:26;;;;;;;4.53;2.22;;;9.20;78.70;;;;;;4740988;30;20340;-90
2023/04/10 01:04:53;;;;;;;5.15;2.42;;;9.20;78.70;;;;;;4735345;30;20044;-90
2023/04/10 01:07:23;;;;;;;4.68;2.33;;;9.20;78.70;;;;;;4755838;30;20068;-90
2023/04/10 01:10:19;;;;;;;4.07;2.20;;;9.20;78.70;;;;;;4752087;30;20056;-90
2023/04/10 01:12:57;;;;;;;3.55;1.95;;;9.20;78.80;;;;;;4745125;30;20043;-90
2023/04/10 01:15:29;;;;;;;4.15;2.28;;;9.10;78.90;;;;;;4756810;30;20609;-90
2023/04/10 01:18:26;;;;;;;4.18;1.85;;;9.10;79.00;;;;;;4771230;30;20131;-90
2023/04/10 01:21:08;;;;;;;;;;;;;;;;;;;;;
2023/04/10 01:23:48;;;;;;;5.13;2.35;;;9.10;79.20;;;;;;4749519;30;20106;-90
2023/04/10 01:26:22;;;;;;;3.95;1.90;;;9.10;79.30;;;;;;4754847;30;20048;-91
2023/04/10 01:29:05;;;;;;;4.60;1.88;;;9.00;79.30;;;;;;4753736;30;20052;-91
2023/04/10 01:32:06;;;;;;;3.75;2.15;;;9.10;79.40;;;;;;4754089;30;20054;-90
2023/04/10 01:34:51;;;;;;;4.60;2.25;;;9.00;79.40;;;;;;4738053;30;20052;-91
2023/04/10 01:37:30;;;;;;;3.58;1.98;;;8.90;79.50;;;;;;4755934;30;20063;-90
2023/04/10 01:40:09;;;;;;;5.22;2.50;;;8.90;79.50;;;;;;4754678;30;20063;-91
2023/04/10 01:42:43;;;;;;;4.40;2.25;;;8.90;79.60;;;;;;4761148;30;20047;-91
2023/04/10 01:45:18;;;;;;;5.57;2.05;;;8.90;79.60;;;;;;4754481;30;20138;-91
2023/04/10 01:47:51;;;;;;;3.28;1.77;;;8.90;79.70;;;;;;4753874;30;20047;-84
2023/04/10 01:50:23;;;;;;;3.47;1.67;;;8.90;79.70;;;;;;4754913;30;20052;-85
2023/04/10 01:53:02;;;;;;;4.43;2.75;;;8.90;79.80;;;;;;4762667;30;20051;-91
2023/04/10 01:55:35;;;;;;;3.75;2.10;;;8.90;79.90;;;;;;4757136;30;20055;-91
2023/04/10 01:58:05;;;;;;;4.75;2.40;;;8.80;80.00;;;;;;4758844;30;20060;-91
2023/04/10 02:00:38;;;;;;;3.75;1.90;;;8.80;80.10;;;;;;4739669;30;20048;-90
2023/04/10 02:03:06;;;;;;;;;;;8.80;80.10;;;;;;4741538;30;20059;-91
2023/04/10 02:05:50;;;;;;;3.38;1.60;;;8.80;80.20;;;;;;4748941;30;19933;-91
2023/04/10 02:08:27;;;;;;;4.38;2.25;;;8.80;80.20;;;;;;4753595;30;20142;-91
2023/04/10 02:11:11;;;;;;;4.18;2.15;;;8.80;80.20;;;;;;4754964;30;20051;-91
2023/04/10 02:13:41;;;;;;;4.53;2.03;;;8.80;80.20;;;;;;4756851;30;20055;-91
2023/04/10 02:16:10;;;;;;;3.75;1.83;;;8.80;80.30;;;;;;4742951;30;20052;-91
2023/04/10 02:18:41;;;;;;;4.45;2.00;;;8.80;80.30;;;;;;4754548;30;20075;-91
2023/04/10 02:21:13;;;;;;;4.32;1.90;;;8.80;80.30;;;;;;4736284;30;20059;-91
2023/04/10 02:23:40;;;;;;;;;;;8.80;80.40;;;;;;4744405;30;20052;-91
2023/04/10 02:26:10;;;;;;;3.45;1.80;;;8.70;80.50;;;;;;4757768;30;20410;-91
2023/04/10 02:28:42;;;;;;;4.18;2.08;;;8.70;80.60;;;;;;4755756;30;20052;-91
2023/04/10 02:31:09;;;;;;;4.05;1.70;;;8.70;80.70;;;;;;4762223;30;20071;-91
2023/04/10 02:33:37;;;;;;;4.13;2.13;;;8.70;80.80;;;;;;4734376;30;20052;-84
2023/04/10 02:36:04;;;;;;;4.07;1.98;;;8.60;80.70;;;;;;4731603;30;20438;-84
2023/04/10 02:38:34;;;;;;;3.42;1.55;;;8.60;80.80;;;;;;4740181;30;20060;-84
2023/04/10 02:41:02;;;;;;;3.35;1.75;;;8.60;80.90;;;;;;4739587;30;20096;-84
2023/04/10 02:43:30;;;;;;;3.67;1.48;;;8.60;81.00;;;;;;4750263;30;20056;-84
2023/04/10 02:46:00;;;;;;;5.22;2.60;;;8.60;81.10;;;;;;4748728;30;20051;-84
2023/04/10 02:48:38;;;;;;;4.10;2.08;;;8.50;81.10;;;;;;4753288;30;20198;-84
2023/04/10 02:51:06;;;;;;;3.88;2.10;;;8.50;81.30;;;;;;4745466;30;20044;-85
2023/04/10 02:53:34;;;;;;;4.00;1.73;;;8.50;81.40;;;;;;4756908;30;20047;-85
2023/04/10 02:56:10;;;;;;;3.33;1.45;;;8.50;81.40;;;;;;4772127;30;20052;-84
2023/04/10 02:58:38;;;;;;;3.45;1.83;;;8.50;81.40;;;;;;4753715;30;20142;-85
2023/04/10 03:01:11;;;;;;;3.28;1.70;;;8.40;81.50;;;;;;4746396;30;20179;-85
2023/04/10 03:03:43;;;;;;;3.50;1.90;;;8.40;81.60;;;;;;4752347;30;20067;-84
2023/04/10 03:06:17;;;;;;;3.63;1.88;;;8.30;81.70;;;;;;4752791;30;20502;-84
2023/04/10 03:08:54;;;;;;;3.15;1.80;;;8.30;81.80;;;;;;4743638;30;20068;-85
2023/04/10 03:11:25;;;;;;;4.15;2.10;;;8.30;81.90;;;;;;4754656;30;20048;-84
2023/04/10 03:13:57;;;;;;;4.32;2.20;;;8.20;81.90;;;;;;4772073;30;20040;-85
2023/04/10 03:16:31;;;;;;;3.28;1.67;;;8.20;82.00;;;;;;4741780;30;20082;-84
2023/04/10 03:19:05;;;;;;;4.55;2.25;;;8.20;82.10;;;;;;4763850;30;20058;-84
2023/04/10 03:21:35;;;;;;;4.50;2.33;;;8.20;82.10;;;;;;4752062;30;20502;-84
2023/04/10 03:24:06;;;;;;;4.43;2.15;;;8.20;82.10;;;;;;4756603;30;20421;-84
2023/04/10 03:26:36;;;;;;;4.63;2.00;;;8.20;82.20;;;;;;4756139;30;20075;-83
2023/04/10 03:29:04;;;;;;;4.20;2.08;;;8.20;82.20;;;;;;4752185;30;20462;-84
2023/04/10 03:31:35;;;;;;;4.40;2.30;;;8.20;82.30;;;;;;4754822;30;20051;-84
2023/04/10 03:34:03;;;;;;;4.35;2.40;;;8.10;82.40;;;;;;4742832;30;20497;-84
2023/04/10 03:36:36;;;;;;;4.32;2.63;;;8.10;82.50;;;;;;4741762;30;20101;-84
2023/04/10 03:39:03;;;;;;;5.78;2.50;;;8.10;82.60;;;;;;4756289;30;20055;-84
2023/04/10 03:41:30;;;;;;;4.97;2.83;;;8.00;82.70;;;;;;4741991;30;20047;-84
2023/04/10 03:44:03;;;;;;;5.72;2.72;;;8.10;82.80;;;;;;4770186;30;20088;-84
2023/04/10 03:46:33;;;;;;;4.18;2.40;;;8.00;82.80;;;;;;4768555;30;20062;-84
2023/04/10 03:49:01;;;;;;;6.47;3.58;;;7.90;82.80;;;;;;4737672;30;20055;-84
2023/04/10 03:51:36;;;;;;;6.05;2.70;;;7.90;82.90;;;;;;4745597;30;20048;-84
2023/04/10 03:54:06;;;;;;;5.38;2.72;;;7.90;82.90;;;;;;4750609;30;20052;-83
2023/04/10 03:56:33;;;;;;;4.88;2.80;;;7.90;83.00;;;;;;4737271;30;20056;-84
2023/04/10 03:59:00;;;;;;;6.10;2.75;;;7.90;83.10;;;;;;4754580;30;20075;-84
2023/04/10 04:01:29;;;;;;;4.72;2.50;;;7.90;83.10;;;;;;4754480;30;20060;-84
2023/04/10 04:04:01;;;;;;;5.00;2.75;;;7.90;83.10;;;;;;4753726;30;20113;-85
2023/04/10 04:06:48;;;;;;;4.60;2.53;;;7.90;83.10;;;;;;4755597;30;20093;-85
2023/04/10 04:09:54;;;;;;;4.68;2.65;;;7.80;83.10;;;;;;4715912;30;20049;-84
2023/04/10 04:12:37;;;;;;;5.43;3.13;;;7.80;83.20;;;;;;4688185;30;20051;-83
2023/04/10 04:15:25;;;;;;;4.78;2.47;;;7.80;83.20;;;;;;4734478;30;20059;-84
2023/04/10 04:18:01;;;;;;;4.70;2.47;;;7.80;83.20;;;;;;4753844;30;20064;-84
2023/04/10 04:20:41;;;;;;;5.50;3.00;;;7.80;83.30;;;;;;4746253;30;20063;-84
2023/04/10 04:23:37;;;;;;;6.05;3.00;;;7.80;83.40;;;;;;4756775;30;20060;-83
2023/04/10 04:26:43;;;;;;;5.32;2.90;;;7.70;83.40;;;;;;4732780;30;20073;-84
2023/04/10 04:29:31;;;;;;;5.25;2.70;;;7.70;83.40;;;;;;4737192;30;20052;-84
2023/04/10 04:32:12;;;;;;;5.45;2.33;;;7.70;83.60;;;;;;4733476;30;20060;-83
2023/04/10 04:34:55;;;;;;;6.95;3.13;;;7.70;83.60;;;;;;4769337;30;20062;-84
2023/04/10 04:37:45;;;;;;;5.13;2.70;;;7.70;83.70;;;;;;4747195;30;20105;-85
2023/04/10 04:40:31;;;;;;;6.57;3.10;;;7.60;83.80;;;;;;4757582;30;20059;-91
2023/04/10 04:43:16;;;;;;;5.35;2.83;;;7.60;83.80;;;;;;4753633;30;20067;-91
2023/04/10 04:45:58;;;;;;;6.28;2.67;;;7.60;83.70;;;;;;4710447;30;1234028;-91
2023/04/10 04:48:58;;;;;;;4.35;2.55;;;7.70;83.90;;;;;;4755821;30;20482;-91
2023/04/10 04:51:51;;;;;;;4.85;2.15;;;7.70;83.90;;;;;;4755582;30;20074;-91
2023/04/10 04:54:33;;;;;;;4.88;2.33;;;7.60;83.90;;;;;;4755471;30;20139;-90
2023/04/10 04:57:18;;;;;;;4.93;2.10;;;7.60;84.00;;;;;;4747650;30;20062;-90
2023/04/10 05:00:05;;;;;;;4.10;2.03;;;7.60;84.10;;;;;;4742375;30;20079;-90
2023/04/10 05:02:51;;;;;;;4.15;2.25;;;7.60;84.10;;;;;;4759907;30;20091;-91
2023/04/10 05:05:35;;;;;;;4.57;2.15;;;7.60;84.10;;;;;;4753160;30;20055;-91
2023/04/10 05:08:21;;;;;;;5.03;2.75;;;7.60;84.20;;;;;;4758287;30;20050;-91
2023/04/10 05:11:12;;;;;;;3.65;1.73;;;7.60;84.20;;;;;;4758164;30;20061;-91
2023/04/10 05:13:54;;;;;;;4.75;2.45;;;7.60;84.20;;;;;;4756144;30;20048;-91
2023/04/10 05:16:51;;;;;;;3.70;1.98;;;7.70;84.20;;;;;;4747519;30;20056;-91
2023/04/10 05:19:39;;;;;;;5.15;2.63;;;7.70;84.10;;;;;;4750232;30;20055;-92
2023/04/10 05:22:19;;;;;;;5.88;2.97;;;7.70;84.00;;;;;;4742668;30;20112;-91
2023/04/10 05:25:12;;;;;;;5.43;2.60;;;7.70;83.90;;;;;;4754746;30;20063;-84
2023/04/10 05:28:00;;;;;;;4.57;2.53;;;7.80;83.90;;;;;;4755837;30;20105;-84
2023/04/10 05:30:53;;;;;;;5.30;2.67;;;7.80;83.80;;;;;;4753817;30;20050;-84
2023/04/10 05:33:55;;;;;;;5.28;2.35;;;7.80;83.80;;;;;;4759644;30;20052;-84
2023/04/10 05:37:00;;;;;;;4.70;2.20;;;7.90;83.80;;;;;;4743455;30;20058;-84
2023/04/10 05:39:55;;;;;;;4.20;2.10;;;7.90;83.70;;;;;;4753682;30;20097;-84
2023/04/10 05:42:45;;;;;;;4.68;2.05;;;7.90;83.60;;;;;;4756782;30;20418;-84
2023/04/10 05:45:27;;;;;;;4.53;2.22;;;8.00;83.50;;;;;;4755995;30;20056;-83
2023/04/10 05:48:18;;;;;;;4.63;2.33;;;8.10;83.40;;;;;;4744551;30;20044;-84
2023/04/10 05:51:14;;;;;;;4.40;1.60;;;8.10;83.30;;;;;;4753128;30;20052;-83
2023/04/10 05:53:59;;;;;;;4.40;2.30;;;8.10;83.30;;;;;;4740691;30;20174;-84
2023/04/10 05:56:40;;;;;;;4.72;2.17;;;8.20;83.20;;;;;;4743867;30;20109;-84
2023/04/10 05:59:44;;;;;;;5.10;2.28;;;8.20;83.20;;;;;;4741584;30;20150;-84
2023/04/10 06:02:39;;;;;;;3.33;1.55;;;8.30;83.10;;;;;;4752154;30;20518;-84
2023/04/10 06:05:14;;;;;;;3.72;1.88;;;8.40;83.00;;;;;;4752479;30;20059;-84
2023/04/10 06:07:42;;;;;;;3.90;2.10;;;8.50;82.90;;;;;;4749996;30;20422;-84
2023/04/10 06:10:10;;;;;;;3.97;1.95;;;8.60;82.70;;;;;;4750974;30;20052;-84
2023/04/10 06:12:37;;;;;;;4.05;2.28;;;8.70;82.70;;;;;;4738820;30;20130;-84
2023/04/10 06:15:08;;;;;;;4.28;2.38;;;8.70;82.50;;;;;;4753516;30;20040;-84
2023/04/10 06:17:43;;;;;;;4.50;2.05;;;8.80;82.40;;;;;;4740652;30;20498;-84
2023/04/10 06:20:10;;;;;;;4.47;1.87;;;8.90;82.30;;;;;;4752567;30;20502;-84
2023/04/10 06:22:38;;;;;;;3.83;2.08;;;9.00;82.20;;;;;;4735883;30;20337;-84
2023/04/10 06:25:05;;;;;;;3.30;1.95;;;9.10;82.10;;;;;;4749681;30;20109;-84
2023/04/10 06:27:36;;;;;;;4.35;2.63;;;9.20;82.00;;;;;;4756408;30;20574;-85
2023/04/10 06:30:09;;;;;;;5.15;2.40;;;9.30;81.80;;;;;;4743754;30;20139;-84
2023/04/10 06:32:40;;;;;;;4.07;1.90;;;9.30;81.70;;;;;;4764493;30;20056;-83
2023/04/10 06:35:18;;;;;;;3.97;1.95;;;9.40;81.50;;;;;;4743494;30;20509;-84
2023/04/10 06:37:46;;;;;;;4.22;2.38;;;9.50;81.40;;;;;;4749425;30;20094;-84
2023/04/10 06:40:15;;;;;;;4.90;2.65;;;9.60;81.30;;;;;;4753516;30;20052;-83
2023/04/10 06:42:44;;;;;;;4.80;2.03;;;9.70;81.10;;;;;;4758810;30;20186;-83
2023/04/10 06:45:24;;;;;;;4.32;2.15;;;9.80;80.90;;;;;;4766130;30;20464;-84
2023/04/10 06:47:51;;;;;;;3.85;2.03;;;9.90;80.80;;;;;;4756226;30;20047;-83
2023/04/10 06:50:21;;;;;;;3.88;2.00;;;10.00;80.60;;;;;;4742290;30;20059;-84
2023/04/10 06:52:58;;;;;;;4.00;2.00;;;10.10;80.40;;;;;;4751484;30;20079;-84
2023/04/10 06:55:26;;;;;;;4.82;2.30;;;10.20;80.20;;;;;;4755416;30;20058;-84
2023/04/10 06:57:54;;;;;;;4.25;2.45;;;10.30;80.00;;;;;;4755867;30;20066;-84
2023/04/10 07:00:22;;;;;;;4.07;2.03;;;10.40;79.90;;;;;;4738013;30;20051;-84
2023/04/10 07:02:50;;;;;;;4.07;1.75;;;10.50;79.80;;;;;;4756361;30;20048;-83
2023/04/10 07:05:17;;;;;;;3.15;1.63;;;10.50;79.60;;;;;;4742291;30;20143;-84
2023/04/10 07:07:49;;;;;;;4.03;1.98;;;10.60;79.50;;;;;;4745742;30;20043;-84
2023/04/10 07:10:19;;;;;;;4.90;2.28;;;10.70;79.30;;;;;;4742305;30;20144;-84
2023/04/10 07:12:46;;;;;;;4.25;2.33;;;10.80;79.20;;;;;;4745759;30;20102;-83
2023/04/10 07:15:13;;;;;;;5.45;2.30;;;10.90;79.00;;;;;;4755490;30;20047;-84
2023/04/10 07:17:41;;;;;;;5.50;2.75;;;11.00;78.90;;;;;;4756286;30;20444;-83
2023/04/10 07:20:11;;;;;;;4.47;2.25;;;11.10;78.70;;;;;;4756026;30;20479;-84
2023/04/10 07:22:39;;;;;;;4.25;1.92;;;11.20;78.50;;;;;;4769020;30;20078;-83
2023/04/10 07:25:13;;;;;;;4.28;2.22;;;11.20;78.30;;;;;;4751421;30;20048;-85
2023/04/10 07:27:40;;;;;;;3.85;1.88;;;11.40;78.20;;;;;;4752841;30;20040;-84
2023/04/10 07:30:08;;;;;;;4.03;2.28;;;11.40;78.10;;;;;;4742012;30;20044;-84
2023/04/10 07:32:42;;;;;;;5.03;2.15;;;11.50;77.90;;;;;;4757389;30;20048;-84
2023/04/10 07:35:15;;;;;;;4.68;2.45;;;11.60;77.70;;;;;;4740052;30;20114;-84
2023/04/10 07:37:45;;;;;;;4.43;2.78;;;11.60;77.60;;;;;;4755497;30;20487;-84
2023/04/10 07:40:15;;;;;;;4.55;2.58;;;11.60;77.50;;;;;;4752899;30;20505;-84
2023/04/10 07:42:45;;;;;;;5.95;3.50;;;11.60;77.40;;;;;;4745882;30;20043;-84
2023/04/10 07:45:12;;;;;;;5.93;2.30;;;11.70;77.30;;;;;;4759320;30;20151;-84
2023/04/10 07:47:39;;;;;;;5.25;3.03;;;11.70;77.20;;;;;;4749690;30;20071;-84
2023/04/10 07:50:07;;;;;;;6.15;2.70;;;11.80;77.20;;;;;;4752392;30;20048;-84
2023/04/10 07:52:35;;;;;;;4.22;2.40;;;11.90;77.00;;;;;;4756050;30;20048;-84
2023/04/10 07:55:03;;;;;;;4.00;2.00;;;12.00;76.90;;;;;;4744422;30;20553;-84
2023/04/10 07:57:31;;;;;;;4.28;2.63;;;12.00;76.50;;;;;;4755949;30;20062;-84
2023/04/10 07:59:58;;;;;;;4.50;2.38;;;12.10;76.40;;;;;;4741419;30;20161;-84
2023/04/10 08:02:25;;;;;;;3.88;2.03;;;12.10;76.30;;;;;;4741221;30;20055;-84
2023/04/10 08:04:53;;;;;;;4.18;2.22;;;12.20;76.30;;;;;;4741446;30;20506;-84
2023/04/10 08:07:21;;;;;;;3.78;2.28;;;12.30;76.20;;;;;;4755963;30;20093;-85
2023/04/10 08:09:48;;;;;;;4.35;2.65;;;12.30;75.80;;;;;;4770413;30;20138;-84
2023/04/10 08:12:16;;;;;;;4.13;2.35;;;12.40;75.80;;;;;;4755675;30;20047;-84
2023/04/10 08:14:44;;;;;;;5.90;3.42;;;12.50;75.40;;;;;;4755712;30;20054;-84
2023/04/10 08:17:13;;;;;;;4.57;3.17;;;12.70;75.00;;;;;;4741116;30;20051;-84
2023/04/10 08:19:41;;;;;;;5.43;3.05;;;12.80;74.80;;;;;;4740977;30;20135;-84
2023/04/10 08:22:09;;;;;;;5.10;3.45;;;13.00;74.30;;;;;;4755878;30;20105;-86
2023/04/10 08:24:41;;;;;;;7.07;3.17;;;13.10;73.80;;;;;;4756019;30;20146;-86
2023/04/10 08:27:08;;;;;;;5.85;3.75;;;13.30;73.50;;;;;;4755664;30;20048;-86
2023/04/10 08:29:41;;;;;;;5.63;3.53;;;13.40;72.80;;;;;;4738117;30;20092;-86
2023/04/10 08:32:08;;;;;;;6.47;3.83;;;13.60;72.30;;;;;;4737767;30;20052;-86
2023/04/10 08:34:37;;;;;;;5.15;3.45;;;13.70;72.20;;;;;;4749697;30;20449;-86
2023/04/10 08:37:09;;;;;;;6.40;4.10;;;13.70;72.10;;;;;;4737787;30;20062;-84
2023/04/10 08:39:39;;;;;;;6.30;4.35;;;13.80;71.20;;;;;;4751422;30;20138;-84
2023/04/10 08:42:06;;;;;;;5.40;3.58;;;13.80;71.30;;;;;;4737580;30;20056;-83
2023/04/10 08:44:35;;;;;;;4.60;2.80;;;13.80;71.50;;;;;;4769523;30;20055;-83
2023/04/10 08:47:05;;;;;;;5.32;2.90;;;13.90;71.50;;;;;;4767462;30;20048;-84
2023/04/10 08:49:39;;;;;;;4.85;2.95;;;14.00;71.40;;;;;;4747864;30;20134;-83
2023/04/10 08:52:20;;;;;;;5.05;3.00;;;14.00;71.00;;;;;;4761110;30;20048;-83
2023/04/10 08:54:50;;;;;;;5.10;2.67;;;14.10;71.00;;;;;;4755051;30;20058;-84
2023/04/10 08:57:21;;;;;;;5.45;3.10;;;14.10;70.80;;;;;;4754646;30;20063;-83
2023/04/10 08:59:50;;;;;;;5.15;2.97;;;14.10;70.60;;;;;;4741470;30;20487;-91
2023/04/10 09:02:18;;;;;;;4.20;2.55;;;14.20;70.40;;;;;;4742423;30;20076;-91
2023/04/10 09:04:54;;;;;;;5.13;3.13;;;14.30;70.40;;;;;;4756600;30;20120;-91
2023/04/10 09:07:22;;;;;;;5.95;2.88;;;14.40;70.00;;;;;;4757029;30;20490;-91
2023/04/10 09:09:49;;;;;;;5.65;3.20;;;14.50;69.90;;;;;;4756382;30;20438;-90
2023/04/10 09:12:17;;;;;;;4.15;2.47;;;14.60;69.70;;;;;;4756063;30;20498;-84
2023/04/10 09:14:45;;;;;;;4.90;2.65;;;14.70;69.60;;;;;;4753562;30;20048;-86
2023/04/10 09:17:20;;;;;;;4.32;2.80;;;14.80;69.30;;;;;;4736760;30;20064;-85
2023/04/10 09:19:51;;;;;;;5.28;2.75;;;14.80;69.30;;;;;;4751105;30;20105;-85
2023/04/10 09:22:32;;;;;;;5.50;3.17;;;14.80;69.20;;;;;;4754590;30;20047;-84
2023/04/10 09:25:01;;;;;;;5.95;3.05;;;14.90;69.00;;;;;;4751789;30;20482;-84
2023/04/10 09:27:37;;;;;;;4.40;2.78;;;14.80;69.10;;;;;;4754101;30;20063;-86
2023/04/10 09:30:06;;;;;;;5.15;3.15;;;14.90;68.70;;;;;;4754632;30;20070;-86
2023/04/10 09:32:41;;;;;;;5.00;2.92;;;14.90;68.50;;;;;;4754317;30;20048;-86
2023/04/10 09:35:14;;;;;;;4.70;2.40;;;15.00;68.40;;;;;;4754244;30;20047;-86
2023/04/10 09:37:44;;;;;;;5.85;3.67;;;15.10;67.80;;;;;;4740470;30;20113;-87
2023/04/10 09:40:26;;;;;;;5.03;3.20;;;15.20;67.50;;;;;;4769700;30;20078;-87
2023/04/10 09:42:56;;;;;;;4.65;2.78;;;15.10;67.50;;;;;;4765789;30;20062;-86
2023/04/10 09:45:48;;;;;;;4.78;2.38;;;15.10;67.80;;;;;;4750029;30;20478;-87
2023/04/10 09:48:15;;;;;;;5.15;2.35;;;15.20;67.90;;;;;;4752333;30;20048;-86
2023/04/10 09:50:42;;;;;;;4.70;2.53;;;15.10;67.80;;;;;;4764551;30;20062;-86
2023/04/10 09:53:15;;;;;;;5.03;2.80;;;15.10;68.00;;;;;;4754460;30;20144;-86
2023/04/10 09:55:43;;;;;;;6.80;2.80;;;15.10;67.90;;;;;;4738477;30;20143;-86
2023/04/10 09:58:13;;;;;;;3.88;2.63;;;15.10;67.90;;;;;;4745923;30;20060;-86
2023/04/10 10:00:43;;;;;;;4.63;2.30;;;15.10;67.90;;;;;;4769552;30;20056;-87
2023/04/10 10:03:17;;;;;;;4.78;2.75;;;15.10;68.00;;;;;;4754770;30;20059;-87
2023/04/10 10:05:48;;;;;;;4.10;2.65;;;15.10;67.80;;;;;;4754950;30;20120;-88
2023/04/10 10:08:33;;;;;;;4.30;2.38;;;15.10;67.80;;;;;;4758070;30;20078;-90
2023/04/10 10:11:11;;;;;;;5.55;2.83;;;15.10;67.70;;;;;;4754140;30;20047;-86
2023/04/10 10:13:53;;;;;;;4.30;2.40;;;15.10;67.80;;;;;;4743320;30;20055;-86
2023/04/10 10:16:33;;;;;;;3.95;2.20;;;15.20;67.70;;;;;;4753970;30;20048;-86
2023/04/10 10:19:30;;;;;;;3.88;2.35;;;15.20;67.80;;;;;;4745059;30;20079;-84
2023/04/10 10:22:00;;;;;;;3.35;1.67;;;15.20;67.60;;;;;;4764099;30;20050;-81
2023/04/10 10:24:31;;;;;;;3.97;2.45;;;15.30;67.70;;;;;;4739809;30;20048;-85
2023/04/10 10:27:01;;;;;;;3.40;2.10;;;15.30;67.50;;;;;;4754427;30;20050;-84
2023/04/10 10:29:33;;;;;;;4.18;2.10;;;15.40;67.50;;;;;;4753679;30;20146;-82
2023/04/10 10:32:07;;;;;;;4.05;2.30;;;15.40;67.30;;;;;;4753707;30;20105;-83
2023/04/10 10:34:37;;;;;;;3.85;2.10;;;15.50;67.00;;;;;;4753742;30;20052;-83
2023/04/10 10:37:11;;;;;;;5.95;2.58;;;15.60;67.00;;;;;;4739660;30;20418;-84
2023/04/10 10:40:09;;;;;;;3.60;2.15;;;15.60;66.90;;;;;;4753769;30;20142;-84
2023/04/10 10:43:02;;;;;;;3.55;2.20;;;15.70;66.80;;;;;;4740695;30;20060;-87
2023/04/10 10:45:42;;;;;;;3.28;1.70;;;15.80;66.60;;;;;;4771109;30;20063;-87
2023/04/10 10:48:21;;;;;;;5.03;1.73;;;15.80;66.50;;;;;;4756165;30;20133;-86
2023/04/10 10:50:55;;;;;;;3.35;2.10;;;15.90;66.50;;;;;;4752389;30;20098;-86
2023/04/10 10:54:19;;;;;;;4.20;2.13;;;16.00;66.30;;;;;;4748867;30;20048;-88
2023/04/10 10:56:54;;;;;;;3.75;1.80;;;16.10;66.00;;;;;;4753776;30;20051;-87
2023/04/10 11:04:00;;;;;;;3.50;1.60;;;16.20;66.00;;;;;;4770806;30;20035;-90
2023/04/10 11:06:53;;;;;;;3.13;1.90;;;16.40;65.50;;;;;;4756146;30;20052;-87
2023/04/10 11:10:00;;;;;;;4.22;2.33;;;16.60;64.70;;;;;;4754963;30;20417;-89
2023/04/10 11:13:06;;;;;;;3.92;2.10;;;16.70;64.60;;;;;;4753157;30;20051;-87
2023/04/10 11:15:53;;;;;;;3.10;1.70;;;16.70;64.60;;;;;;4751469;30;20047;-88
2023/04/10 11:18:46;;;;;;;3.50;2.08;;;16.90;64.60;;;;;;4757862;30;20819;-90
2023/04/10 11:22:14;;;;;;;4.57;1.90;;;17.00;64.30;;;;;;4755385;30;20460;-91
2023/04/10 11:24:57;;;;;;;4.72;1.67;;;17.10;64.20;;;;;;4736128;30;20084;-88
2023/04/10 11:27:50;;;;;;;3.75;1.90;;;17.20;64.10;;;;;;4741487;30;20056;-88
2023/04/10 11:30:37;;;;;;;4.55;2.40;;;17.50;63.70;;;;;;4734155;30;20405;-88
2023/04/10 11:33:07;;;;;;;4.63;2.20;;;17.60;62.90;;;;;;4761756;30;20052;-86
2023/04/10 11:35:35;;;;;;;3.35;1.75;;;17.90;62.80;;;;;;4754568;30;20052;-89
2023/04/10 11:38:13;;;;;;;3.08;1.65;;;18.00;62.30;;;;;;4750742;30;20056;-89
2023/04/10 11:41:41;;;;;;;3.08;2.13;;;18.20;62.10;;;;;;4765508;30;20493;-89
2023/04/10 11:49:58;;;;;;;3.28;1.92;;;19.00;60.70;;;;;;4735343;30;20060;-82
2023/04/10 11:57:14;;;;;;;4.15;2.28;;;18.50;60.20;;;;;;4665046;30;20149;-83
2023/04/10 12:11:48;;;;;;;4.28;2.53;;;18.10;58.70;;;;;;4655862;30;20059;-83
2023/04/10 12:18:51;;;;;;;4.40;2.35;;;18.10;58.80;;;;;;4668815;30;20180;-87
2023/04/10 12:21:20;;;;;;;4.32;2.60;;;18.20;59.10;;;;;;4684968;30;20132;-87
2023/04/10 12:24:09;;;;;;;3.92;2.40;;;18.20;58.30;;;;;;4716747;30;20206;-88
2023/04/10 12:26:47;;;;;;;3.30;1.58;;;18.30;58.40;;;;;;4706224;30;20052;-85
2023/04/10 12:29:46;;;;;;;3.67;2.40;;;18.30;58.10;;;;;;4716129;30;20414;-87
2023/04/10 12:32:55;;;;;;;2.90;1.90;;;18.40;57.70;;;;;;4714051;30;20049;-88
2023/04/10 12:37:04;;;;;;;3.95;1.55;;;18.40;57.60;;;;;;4679201;30;20054;-90
2023/04/10 12:40:08;;;;;;;4.10;2.03;;;18.40;57.60;;;;;;4629637;31;20068;-84
2023/04/10 12:42:56;;;;;;;2.70;1.52;;;18.30;56.50;;;;;;4626468;30;20047;-85
2023/04/10 12:45:46;;;;;;;3.15;1.65;;;18.30;56.60;;;;;;4698574;30;20110;-85
2023/04/10 12:48:26;;;;;;;2.70;1.60;;;18.30;56.90;;;;;;4752817;30;20063;-84
2023/04/10 12:51:04;;;;;;;2.95;1.40;;;18.40;56.40;;;;;;4753526;30;20493;-85
2023/04/10 12:53:45;;;;;;;3.53;1.40;;;18.60;56.70;;;;;;4774256;30;20425;-85
2023/04/10 12:56:13;;;;;;;3.00;1.80;;;18.60;56.10;;;;;;4754946;30;20142;-82
2023/04/10 12:58:41;;;;;;;3.40;1.50;;;18.50;55.70;;;;;;4737467;30;20044;-83
2023/04/10 13:01:10;;;;;;;2.70;1.30;;;18.40;56.20;;;;;;4743152;30;20117;-80
2023/04/10 13:03:37;;;;;;;3.10;1.45;;;18.30;56.60;;;;;;4754603;30;20568;-82
2023/04/10 13:06:06;;;;;;;3.28;1.42;;;18.20;56.20;;;;;;4754658;30;20433;-82
2023/04/10 13:08:36;;;;;;;2.22;1.15;;;18.20;56.40;;;;;;4739949;30;20048;-82
2023/04/10 13:11:03;;;;;;;2.35;1.30;;;18.10;56.60;;;;;;4739954;30;20048;-81
2023/04/10 13:13:39;;;;;;;2.22;1.27;;;18.10;56.60;;;;;;4754529;30;20048;-83
2023/04/10 13:16:11;;;;;;;2.80;1.50;;;18.00;56.50;;;;;;4754746;30;20139;-82
2023/04/10 13:18:44;;;;;;;2.70;1.40;;;17.90;56.80;;;;;;4740379;30;20095;-82
2023/04/10 13:21:21;;;;;;;;;;;;;;;;;;;;;
2023/04/10 13:23:58;;;;;;;2.67;1.25;;;17.60;57.60;;;;;;4747473;30;20105;-85
2023/04/10 13:26:34;;;;;;;3.30;1.33;;;17.40;57.80;;;;;;4766060;30;20048;-87
2023/04/10 13:29:04;;;;;;;2.75;1.15;;;17.30;58.00;;;;;;4739459;30;20056;-85
2023/04/10 13:31:42;;;;;;;4.00;1.50;;;17.20;58.20;;;;;;4739899;30;20053;-86
2023/04/10 13:34:15;;;;;;;;;;;17.20;58.50;;;;;;4755692;30;20052;-85
2023/04/10 13:36:46;;;;;;;1.92;1.17;;;17.10;58.80;;;;;;4739657;30;19979;-84
2023/04/10 13:39:17;;;;;;;2.10;1.20;;;17.00;58.90;;;;;;4754322;30;20093;-86
2023/04/10 13:42:05;;;;;;;2.50;1.17;;;17.00;59.00;;;;;;4769091;30;20054;-86
2023/04/10 13:44:53;;;;;;;;;;;;;;;;;;;;;
2023/04/10 13:47:39;;;;;;;3.33;1.30;;;16.90;58.90;;;;;;4756180;30;20060;-89
2023/04/10 13:50:14;;;;;;;2.45;1.30;;;16.80;59.00;;;;;;4740937;30;20048;-84
2023/04/10 13:52:46;;;;;;;2.33;1.42;;;16.80;59.20;;;;;;4736791;30;20071;-86
2023/04/10 13:55:16;;;;;;;2.35;1.33;;;16.80;59.20;;;;;;4734587;30;20070;-84
2023/04/10 13:57:46;;;;;;;2.17;1.17;;;16.70;59.30;;;;;;4742605;30;20135;-84
2023/04/10 14:00:25;;;;;;;2.28;1.38;;;16.70;59.50;;;;;;4739600;30;20143;-85
2023/04/10 14:02:55;;;;;;;1.95;1.10;;;16.70;59.60;;;;;;4753801;30;20065;-85
2023/04/10 14:05:26;;;;;;;2.05;1.08;;;16.60;59.70;;;;;;4739607;30;20051;-86
2023/04/10 14:08:10;;;;;;;2.40;1.40;;;16.60;59.90;;;;;;4768553;30;20055;-85
2023/04/10 14:10:55;;;;;;;2.03;0.90;;;16.60;60.10;;;;;;4743119;30;20055;-84
2023/04/10 14:13:25;;;;;;;2.25;1.02;;;16.60;60.20;;;;;;4768865;30;20063;-82
2023/04/10 14:16:30;;;;;;;1.75;1.00;;;16.80;60.10;;;;;;4740126;30;20048;-90